Time;durP1;ratioP1;P1;durP2;ratioP2;P2;SDS_P1;SDS_P2;PMS_P1;PMS_P2;Temp;Humidity;BMP_temperature;BMP_pressure;BME280_temperature;BME280_humidity;BME280_pressure;Samples;Min_cycle;Max_cycle;Signal;HPM_P1;HPM_P2
2022/12/29 00:07:25;;;;;;;10.40;5.30;;;;;;;3.42;85.18;99215.10;436405;1286;141275;-61
2022/12/29 00:17:31;;;;;;;11.00;5.90;;;;;;;3.45;85.12;99213.07;436387;1280;143310;-61
2022/12/29 00:58:54;;;;;;;6.60;4.90;;;;;;;3.33;84.61;99173.73;421270;1281;141420;-60
2022/12/29 01:19:25;;;;;;;7.00;4.30;;;;;;;3.30;84.35;99165.36;422403;1275;213634;-61
2022/12/29 01:29:31;;;;;;;4.90;4.40;;;;;;;3.32;84.35;99161.33;431493;1281;141717;-61
2022/12/29 01:39:37;;;;;;;5.20;4.20;;;;;;;3.32;84.24;99145.91;418359;1275;142212;-60
2022/12/29 01:49:43;;;;;;;5.10;3.60;;;;;;;3.32;84.34;99141.92;418923;1275;141964;-59
2022/12/29 01:59:57;;;;;;;4.70;3.40;;;;;;;3.35;84.19;99124.33;424013;1275;140640;-60
2022/12/29 02:10:04;;;;;;;5.40;3.80;;;;;;;3.43;84.04;99108.77;434466;1278;141919;-60
2022/12/29 02:20:38;;;;;;;5.30;4.00;;;;;;;3.52;83.82;99125.39;427761;1281;141417;-60
2022/12/29 02:30:53;;;;;;;6.70;4.00;;;;;;;3.52;83.69;99113.45;424271;1278;141035;-60
2022/12/29 02:41:08;;;;;;;5.70;3.30;;;;;;;3.51;83.77;99103.45;429461;1275;142936;-59
2022/12/29 02:51:20;;;;;;;5.30;3.10;;;;;;;3.45;83.53;99079.30;434825;1281;143156;-60
2022/12/29 03:01:38;;;;;;;6.50;3.40;;;;;;;3.47;83.53;99081.11;421653;1279;142121;-60
2022/12/29 03:12:09;;;;;;;6.20;3.30;;;;;;;3.48;83.49;99061.66;434069;1281;143253;-61
2022/12/29 03:22:31;;;;;;;3.90;2.70;;;;;;;3.44;83.25;99055.78;426960;1275;209147;-61
2022/12/29 03:32:42;;;;;;;6.50;3.60;;;;;;;3.44;83.35;99049.38;436463;1281;141910;-61
2022/12/29 03:42:49;;;;;;;3.20;2.80;;;;;;;3.48;83.08;99055.61;428529;1274;142314;-61
2022/12/29 03:52:55;;;;;;;5.00;3.90;;;;;;;3.47;83.14;99045.98;436434;1274;141774;-61
2022/12/29 04:03:02;;;;;;;5.90;3.30;;;;;;;3.44;83.22;99034.50;436365;1273;142954;-61
2022/12/29 04:13:08;;;;;;;3.90;3.40;;;;;;;3.48;83.17;99005.08;435632;1282;211352;-61
2022/12/29 04:23:14;;;;;;;6.50;3.70;;;;;;;3.51;82.81;99001.18;436179;1280;141687;-61
2022/12/29 04:33:20;;;;;;;4.60;3.50;;;;;;;3.51;82.78;98995.79;435422;1275;141803;-61
2022/12/29 04:43:26;;;;;;;5.10;2.50;;;;;;;3.60;82.76;98983.10;436179;1275;142745;-61
2022/12/29 04:53:32;;;;;;;5.30;3.70;;;;;;;3.68;82.69;98974.59;423312;1274;142337;-62
2022/12/29 05:03:38;;;;;;;4.50;2.80;;;;;;;3.71;82.62;98974.46;429631;1274;141589;-60
2022/12/29 05:13:47;;;;;;;3.30;2.70;;;;;;;3.78;82.48;98968.42;436506;1274;141954;-60
2022/12/29 05:23:53;;;;;;;4.30;3.50;;;;;;;3.81;82.02;98951.89;436503;1266;141890;-61
2022/12/29 05:33:59;;;;;;;4.30;3.10;;;;;;;3.80;82.32;98947.26;435811;1271;198154;-60
2022/12/29 05:44:06;;;;;;;6.80;3.50;;;;;;;3.92;81.88;98981.33;436492;1278;142403;-60
2022/12/29 05:54:12;;;;;;;5.70;3.20;;;;;;;3.92;81.79;98985.45;435552;1283;142422;-60
2022/12/29 06:04:18;;;;;;;6.00;3.10;;;;;;;3.92;81.84;98978.89;436462;1275;142285;-61
2022/12/29 06:14:25;;;;;;;7.00;3.70;;;;;;;3.93;81.45;98980.04;436549;1281;141446;-62
2022/12/29 06:24:31;;;;;;;4.50;3.30;;;;;;;3.97;81.52;98973.63;435792;1273;142333;-61
2022/12/29 06:34:37;;;;;;;3.60;3.20;;;;;;;4.00;81.20;98964.15;436474;1281;196248;-61
2022/12/29 06:44:43;;;;;;;5.00;3.00;;;;;;;3.97;80.96;98957.71;436494;1278;141145;-61
2022/12/29 06:54:50;;;;;;;4.40;3.70;;;;;;;3.84;80.73;98966.78;435780;1277;142266;-61
2022/12/29 07:04:56;;;;;;;6.40;4.70;;;;;;;3.90;80.64;98966.85;436529;1281;142927;-61
2022/12/29 07:15:02;;;;;;;4.20;3.20;;;;;;;4.02;80.65;98970.27;436570;1274;141553;-61
2022/12/29 07:25:10;;;;;;;6.20;4.00;;;;;;;4.12;80.02;98977.60;436054;1277;209204;-60
2022/12/29 07:35:16;;;;;;;5.40;3.40;;;;;;;4.25;79.77;98969.05;436409;1274;141357;-60
2022/12/29 07:45:22;;;;;;;6.80;3.80;;;;;;;4.33;79.71;98962.43;435719;1284;141286;-61
2022/12/29 07:55:29;;;;;;;6.70;3.40;;;;;;;4.41;79.71;98958.73;436479;1281;141246;-60
2022/12/29 08:05:36;;;;;;;4.70;3.60;;;;;;;4.62;79.39;98962.09;436502;1281;142700;-59
2022/12/29 08:15:42;;;;;;;8.10;4.30;;;;;;;4.77;79.01;98967.40;435774;1281;143027;-62
2022/12/29 08:25:48;;;;;;;7.10;5.30;;;;;;;4.83;79.03;98965.00;436512;1281;142332;-61
2022/12/29 08:35:54;;;;;;;4.80;3.70;;;;;;;4.83;78.81;98955.64;435979;1281;143333;-63
2022/12/29 08:46:01;;;;;;;7.60;5.00;;;;;;;4.95;78.75;98960.27;435586;1282;141496;-63
2022/12/29 08:56:11;;;;;;;5.20;4.20;;;;;;;5.11;78.68;98976.42;436524;1284;143775;-63
2022/12/29 09:06:19;;;;;;;8.60;4.70;;;;;;;5.26;78.49;98978.97;435598;1281;141876;-64
2022/12/29 09:16:26;;;;;;;6.60;4.50;;;;;;;5.38;78.30;98959.12;436454;1274;142808;-62
2022/12/29 09:26:33;;;;;;;5.90;4.50;;;;;;;5.83;78.02;98952.50;436502;1281;141619;-63
2022/12/29 09:36:39;;;;;;;4.70;4.20;;;;;;;6.46;77.03;98949.42;435802;1283;142981;-63
2022/12/29 09:46:49;;;;;;;5.90;4.20;;;;;;;6.60;76.50;98938.73;436485;1281;141895;-63
2022/12/29 09:56:56;;;;;;;5.10;4.30;;;;;;;6.64;76.08;98928.91;433880;1268;141338;-63
2022/12/29 10:07:11;;;;;;;10.10;5.20;;;;;;;6.68;75.67;98926.78;433091;1278;143104;-63
2022/12/29 10:17:48;;;;;;;7.40;4.70;;;;;;;6.68;75.57;98921.59;435790;1284;141390;-63
2022/12/29 10:27:58;;;;;;;7.30;5.20;;;;;;;6.80;75.19;98913.42;435158;1283;142367;-63
2022/12/29 10:38:15;;;;;;;6.80;4.50;;;;;;;6.84;74.89;98915.44;435992;1281;141825;-65
2022/12/29 10:48:24;;;;;;;8.10;5.00;;;;;;;6.85;74.92;98914.48;435161;1276;143336;-63
2022/12/29 10:58:36;;;;;;;5.60;4.10;;;;;;;6.86;74.50;98905.92;431277;1275;141898;-63
2022/12/29 11:08:52;;;;;;;5.80;4.70;;;;;;;7.03;74.44;98896.89;432372;1274;142996;-63
2022/12/29 11:18:58;;;;;;;6.30;4.80;;;;;;;7.11;74.30;98893.09;431898;1281;142060;-63
2022/12/29 11:29:20;;;;;;;6.90;3.80;;;;;;;7.25;74.16;98884.23;436241;1281;141963;-64
2022/12/29 11:39:37;;;;;;;7.40;4.70;;;;;;;7.71;73.88;98875.83;435457;1274;145035;-61
2022/12/29 11:49:50;;;;;;;11.70;5.60;;;;;;;7.87;73.45;98878.52;436286;1275;142237;-61
2022/12/29 11:59:58;;;;;;;5.90;4.80;;;;;;;7.76;73.68;98871.55;436325;1287;142187;-62
2022/12/29 12:10:09;;;;;;;8.00;4.10;;;;;;;7.81;73.78;98864.77;423200;1281;142585;-60
2022/12/29 12:20:21;;;;;;;10.90;5.00;;;;;;;7.74;73.65;98863.41;436298;1281;141290;-61
2022/12/29 12:30:34;;;;;;;6.80;4.90;;;;;;;7.76;73.88;98859.14;435611;1281;142630;-60
2022/12/29 12:40:58;;;;;;;8.00;4.10;;;;;;;7.83;73.74;98856.45;427226;1280;141393;-60
2022/12/29 12:51:15;;;;;;;6.20;4.10;;;;;;;7.83;73.70;98851.73;436209;1281;141473;-60
2022/12/29 13:01:36;;;;;;;6.60;4.20;;;;;;;7.86;73.70;98849.97;435894;1281;197161;-60
2022/12/29 13:11:56;;;;;;;5.70;4.90;;;;;;;7.93;73.73;98855.81;431301;1275;141843;-61
2022/12/29 13:22:10;;;;;;;8.80;4.20;;;;;;;7.97;73.91;98847.52;435320;1274;141945;-61
2022/12/29 13:32:27;;;;;;;6.50;4.30;;;;;;;8.02;73.87;98848.45;436160;1277;141354;-61
2022/12/29 13:42:35;;;;;;;7.10;4.40;;;;;;;8.01;73.91;98851.10;435199;1281;142242;-61
2022/12/29 13:52:43;;;;;;;;;;;;;;;7.99;74.06;98849.16;436182;1285;141577;-60
2022/12/29 14:02:59;;;;;;;;;;;;;;;7.95;74.06;98857.08;436425;1276;128626;-61
2022/12/29 14:13:11;;;;;;;10.00;5.00;;;;;;;7.84;74.45;98866.48;434324;1274;195087;-60
2022/12/29 14:23:37;;;;;;;8.20;5.00;;;;;;;7.75;74.60;98872.09;431742;1281;141728;-61
2022/12/29 14:34:03;;;;;;;6.50;4.60;;;;;;;7.59;74.78;98873.78;422907;1282;141467;-60
2022/12/29 14:44:21;;;;;;;6.60;4.50;;;;;;;7.40;75.30;98877.77;424574;1281;141737;-61
2022/12/29 14:55:00;;;;;;;5.80;3.90;;;;;;;7.26;75.61;98878.95;433087;1281;141763;-59
2022/12/29 15:05:20;;;;;;;8.90;5.00;;;;;;;7.17;76.00;98885.42;427771;1281;141590;-63
2022/12/29 15:15:28;;;;;;;8.00;5.90;;;;;;;7.14;76.19;98891.52;435343;1275;141469;-62
2022/12/29 15:25:34;;;;;;;6.60;4.10;;;;;;;7.13;76.61;98887.60;428079;1275;142879;-62
2022/12/29 15:35:40;;;;;;;7.60;5.30;;;;;;;7.13;76.65;98890.40;431822;1275;141913;-63
2022/12/29 15:45:46;;;;;;;10.80;6.50;;;;;;;7.11;76.83;98886.52;435483;1286;142064;-62
2022/12/29 15:55:53;;;;;;;11.90;7.60;;;;;;;7.10;76.80;98889.33;433231;1275;142181;-62
2022/12/29 16:06:26;;;;;;;12.40;7.10;;;;;;;7.08;76.65;98892.26;433838;1283;142377;-63
2022/12/29 16:16:36;;;;;;;12.40;7.70;;;;;;;7.02;76.52;98901.33;436313;1287;141788;-63
2022/12/29 16:26:49;;;;;;;11.60;7.70;;;;;;;6.95;76.66;98900.70;436114;1286;145266;-63
2022/12/29 16:36:58;;;;;;;16.30;10.20;;;;;;;6.88;76.68;98906.64;435333;1287;141503;-62
2022/12/29 16:47:17;;;;;;;11.50;7.50;;;;;;;6.82;76.73;98912.94;436484;1280;141768;-62
2022/12/29 16:57:31;;;;;;;14.40;8.30;;;;;;;6.68;76.87;98908.70;435496;1287;146188;-62
2022/12/29 17:07:38;;;;;;;11.50;9.40;;;;;;;6.56;77.26;98924.33;436225;1281;142681;-62
2022/12/29 17:17:45;;;;;;;11.30;8.30;;;;;;;6.59;77.53;98917.04;436369;1286;141988;-63
2022/12/29 17:27:56;;;;;;;11.40;8.50;;;;;;;6.54;77.54;98911.27;435593;1287;142325;-63
2022/12/29 17:38:02;;;;;;;9.10;6.30;;;;;;;6.50;77.71;98917.76;436495;1285;142509;-63
2022/12/29 17:48:13;;;;;;;12.70;8.10;;;;;;;6.53;77.86;98922.09;435627;1280;142407;-63
2022/12/29 17:58:22;;;;;;;11.40;7.30;;;;;;;6.57;77.84;98918.70;436474;1282;141937;-64
2022/12/29 18:08:28;;;;;;;12.70;8.50;;;;;;;6.63;77.98;98923.60;431455;1280;142204;-64
2022/12/29 18:18:34;;;;;;;13.50;7.60;;;;;;;6.69;78.05;98929.90;435674;1288;142920;-62
2022/12/29 18:28:42;;;;;;;13.40;7.40;;;;;;;6.73;77.87;98930.52;436528;1287;141741;-63
2022/12/29 18:38:48;;;;;;;10.80;7.60;;;;;;;6.61;77.70;98919.39;436239;1288;142622;-63
2022/12/29 18:48:54;;;;;;;11.60;8.20;;;;;;;6.47;77.73;98922.59;435623;1281;142316;-63
2022/12/29 18:59:00;;;;;;;9.90;6.00;;;;;;;6.37;77.99;98929.59;436261;1287;142109;-63
2022/12/29 19:09:07;;;;;;;13.30;6.60;;;;;;;6.32;78.10;98929.04;429483;1281;142648;-63
2022/12/29 19:19:17;;;;;;;12.60;8.20;;;;;;;6.34;78.23;98919.55;425951;1274;141634;-63
2022/12/29 19:29:23;;;;;;;10.40;6.10;;;;;;;6.35;78.30;98927.30;436293;1282;142715;-63
2022/12/29 19:39:29;;;;;;;10.80;7.20;;;;;;;6.52;78.22;98927.38;435669;1281;141701;-64
2022/12/29 19:49:35;;;;;;;13.00;8.20;;;;;;;6.65;77.99;98931.17;436496;1286;142287;-64
2022/12/29 19:59:41;;;;;;;12.50;7.00;;;;;;;6.66;77.62;98934.90;436450;1281;141735;-63
2022/12/29 20:09:47;;;;;;;12.40;7.30;;;;;;;6.47;77.53;98936.02;435453;1283;142750;-63
2022/12/29 20:19:53;;;;;;;11.40;7.40;;;;;;;6.18;77.81;98936.59;436098;1282;143092;-62
2022/12/29 20:29:59;;;;;;;10.20;7.20;;;;;;;6.05;78.19;98936.11;436263;1281;141939;-62
2022/12/29 20:40:07;;;;;;;11.90;8.80;;;;;;;6.01;78.26;98937.84;435418;1282;141693;-62
2022/12/29 20:50:13;;;;;;;10.60;7.60;;;;;;;6.03;78.32;98942.96;436185;1275;141955;-61
2022/12/29 21:00:19;;;;;;;16.40;9.60;;;;;;;5.94;78.33;98956.13;435335;1281;142711;-63
2022/12/29 21:10:27;;;;;;;12.10;9.20;;;;;;;5.86;78.50;98962.09;423740;1280;141398;-62
2022/12/29 21:20:33;;;;;;;12.30;10.10;;;;;;;5.89;78.54;98969.77;428603;1282;141968;-65
2022/12/29 21:30:40;;;;;;;12.50;8.00;;;;;;;5.92;78.48;98968.40;425456;1281;142909;-60
2022/12/29 21:40:46;;;;;;;12.60;8.50;;;;;;;5.86;78.38;98971.70;419258;1278;141611;-61
2022/12/29 22:22:05;;;;;;;12.50;8.60;;;;;;;5.52;78.89;98996.05;435173;1278;141829;-61
2022/12/29 22:32:11;;;;;;;10.90;7.70;;;;;;;5.33;78.88;99003.61;436021;1280;141064;-61
2022/12/29 22:42:17;;;;;;;13.00;7.80;;;;;;;5.04;79.22;99020.51;435473;1274;142090;-60
2022/12/29 22:52:23;;;;;;;11.10;8.60;;;;;;;4.83;79.61;99016.01;436184;1274;142430;-61
2022/12/29 23:02:30;;;;;;;9.90;8.70;;;;;;;4.65;79.95;99012.34;435904;1282;142502;-60
2022/12/29 23:12:36;;;;;;;13.40;9.70;;;;;;;4.41;80.35;99015.93;435213;1278;143446;-61
2022/12/29 23:22:42;;;;;;;15.00;9.20;;;;;;;4.38;80.93;99018.68;427711;1274;141548;-61
2022/12/29 23:32:48;;;;;;;10.10;7.90;;;;;;;4.62;81.07;99017.02;433685;1274;142225;-60
2022/12/29 23:42:54;;;;;;;11.90;9.40;;;;;;;4.59;80.85;99007.30;422519;1275;141829;-62
2022/12/29 23:53:00;;;;;;;11.10;8.70;;;;;;;4.27;81.41;99001.17;436190;1280;142203;-60
